UKWW/VIN METAR and TAF weather

Enter ICAO airport designator
Station Type Date Time Source
UKWW METAR 2019/10/15 17:00 UTC NOAA

UKWW 151700Z 14003MPS CAVOK 13/09 Q1019 NOSIG


Station Type Date Time Source
UKWW Decoded METAR 2019/10/15 17:00 UTC NOAA

Station name not available
Oct 15, 2019 - 01:00 PM EDT / 2019.10.15 1700 UTC
Wind: from the SE (140 degrees) at 7 MPH (6 KT):0
Visibility: greater than 7 mile(s):0
Temperature: 55 F (13 C)
Dew Point: 48 F (9 C)
Relative Humidity: 76%
Pressure (altimeter): 30.09 in. Hg (1019 hPa)
ob: UKWW 151700Z 14003MPS CAVOK 13/09 Q1019 NOSIG
cycle: 17

Station Type Date Time Source
UKWW TAF 2010/03/21 10:45 UTC NOAA

TAF UKWW 211045Z 2112/2212 24005G10MPS 9999 SCT020 BKN070
TEMPO 2115/2207 1400 -SHRA BR SCT004 BKN007CB
FM220700 34007G12MPS 9999 SCT015 BKN100 TX11/2112Z TN01/2204Z

Example: see airport list